Xin Da Yang Zhou — BPKE — position and weather

sailwx.info

Track history (hours):
 
Tides and Currents Weather Stations Pressure Air Temp Water Temp Dewpoint Dewpoint Depression Visibility Wind Speed Wind Dir Waves Ship Positions

Xin Da Yang Zhou

Last reported at 2018-Jul-12 01:34 UTC. Time now 2018-Jul-20 02:54 UTC.
Position N 22°50' E 119°58'.
Warning: this ship's position is 8 days out of date.

Length 335 m; draft 11.8 m.

Type: Ship (hazmat cat A). MMSI: 413173000.

Date/timePositionNaut miles runAvg speedWind from/ knotsBaromVisibWave heightAir tempDewpointWater temp
2018-Jul-12 01:34N 22°50' E 119°58'119.2
2018-Jul-12 01:30N 22°49' E 119°58'1019.6
2018-Jul-12 01:00N 22°39' E 120°01'1020.0
2018-Jul-12 00:30N 22°34' E 120°10'814.7
2018-Jul-11 23:59N 22°33' E 120°18'2 0.1
2018-Jul-11 05:06N 22°33' E 120°20'0 0.7
2018-Jul-11 05:01N 22°33' E 120°20'2 4.0
2018-Jul-11 04:30N 22°33' E 120°18'2 4.3
2018-Jul-11 04:01N 22°32' E 120°15'3 6.3
2018-Jul-11 03:30N 22°30' E 120°13'2 4.3
2018-Jul-11 02:57N 22°29' E 120°11'0 0.5
2018-Jul-11 02:28N 22°29' E 120°11'0 0.5
2018-Jul-11 02:00N 22°29' E 120°11'0 0.4
2018-Jul-11 01:30N 22°29' E 120°10'0 0.5
2018-Jul-11 00:54N 22°29' E 120°10'1 1.4
2018-Jul-11 00:30N 22°29' E 120°10'5 9.1
2018-Jul-10 23:54N 22°28' E 120°04'  
Track history (hours):
 
Tides and Currents Weather Stations Pressure Air Temp Water Temp Dewpoint Dewpoint Depression Visibility Wind Speed Wind Dir Waves Ship Positions

Xin Da Yang Zhou

Last reported at 2018-Jul-12 01:34 UTC. Time now 2018-Jul-20 02:54 UTC.
Position N 22°50' E 119°58'.
Warning: this ship's position is 8 days out of date.

Length 335 m; draft 11.8 m.

Type: Ship (hazmat cat A). MMSI: 413173000.

Date/timePositionNaut miles runAvg speedWind from/ knotsBaromVisibWave heightAir tempDewpointWater temp
2018-Jul-12 01:34N 22°50' E 119°58'119.2
2018-Jul-12 01:30N 22°49' E 119°58'1019.6
2018-Jul-12 01:00N 22°39' E 120°01'1020.0
2018-Jul-12 00:30N 22°34' E 120°10'814.7
2018-Jul-11 23:59N 22°33' E 120°18'2 0.1
2018-Jul-11 05:06N 22°33' E 120°20'0 0.7
2018-Jul-11 05:01N 22°33' E 120°20'2 4.0
2018-Jul-11 04:30N 22°33' E 120°18'2 4.3
2018-Jul-11 04:01N 22°32' E 120°15'3 6.3
2018-Jul-11 03:30N 22°30' E 120°13'2 4.3
2018-Jul-11 02:57N 22°29' E 120°11'0 0.5
2018-Jul-11 02:28N 22°29' E 120°11'0 0.5
2018-Jul-11 02:00N 22°29' E 120°11'0 0.4
2018-Jul-11 01:30N 22°29' E 120°10'0 0.5
2018-Jul-11 00:54N 22°29' E 120°10'1 1.4
2018-Jul-11 00:30N 22°29' E 120°10'5 9.1
2018-Jul-10 23:54N 22°28' E 120°04'  

Dump ship's entire track history